Time;durP1;ratioP1;P1;durP2;ratioP2;P2;SDS_P1;SDS_P2;PMS_P1;PMS_P2;Temp;Humidity;BMP_temperature;BMP_pressure;BME280_temperature;BME280_humidity;BME280_pressure;Samples;Min_cycle;Max_cycle;Signal;HPM_P1;HPM_P2
2022/09/14 00:01:22;;;;;;;5.13;2.17;;;;;;;19.37;83.94;95246.13;5005953;28;20057;-59
2022/09/14 00:03:52;;;;;;;5.28;2.53;;;;;;;19.34;84.42;95247.34;5000633;28;20109;-59
2022/09/14 00:06:17;;;;;;;2.70;2.28;;;;;;;19.44;83.83;95249.56;5000620;28;20049;-59
2022/09/14 00:08:43;;;;;;;3.63;2.38;;;;;;;19.36;83.95;95239.97;5002835;28;20532;-59
2022/09/14 00:11:11;;;;;;;3.55;2.35;;;;;;;19.31;84.77;95247.75;4998248;28;20030;-58
2022/09/14 00:13:39;;;;;;;9.50;2.58;;;;;;;19.24;85.42;95241.63;5002399;28;20512;-58
2022/09/14 00:16:10;;;;;;;7.75;2.70;;;;;;;19.21;85.63;95228.69;4999145;28;20019;-59
2022/09/14 00:18:36;;;;;;;6.38;2.45;;;;;;;19.15;85.57;95239.19;4999520;28;20084;-59
2022/09/14 00:21:05;;;;;;;7.28;2.42;;;;;;;19.18;85.32;95228.09;5000560;28;20031;-59
2022/09/14 00:23:30;;;;;;;4.43;2.47;;;;;;;19.26;84.60;95227.06;5005651;28;20389;-58
2022/09/14 00:26:04;;;;;;;5.70;2.00;;;;;;;19.29;83.71;95225.78;5005684;28;20022;-60
2022/09/14 00:28:30;;;;;;;4.63;2.05;;;;;;;19.27;82.37;95222.53;5009219;28;20025;-58
2022/09/14 00:30:56;;;;;;;3.63;2.22;;;;;;;19.22;81.91;95211.66;5007628;28;20038;-60
2022/09/14 00:33:21;;;;;;;5.55;2.10;;;;;;;19.16;82.26;95214.13;5006310;28;20461;-61
2022/09/14 00:35:47;;;;;;;4.15;2.33;;;;;;;19.12;82.63;95217.41;5009589;28;20080;-59
2022/09/14 00:38:12;;;;;;;5.75;2.10;;;;;;;19.12;82.07;95210.25;5007407;28;20038;-60
2022/09/14 00:40:38;;;;;;;5.88;2.40;;;;;;;19.15;81.59;95223.16;5007597;28;20062;-61
2022/09/14 00:43:12;;;;;;;5.70;2.67;;;;;;;19.13;81.71;95225.22;5008988;28;20478;-61
2022/09/14 00:45:37;;;;;;;4.60;2.13;;;;;;;19.11;81.58;95221.13;5006059;28;20033;-60
2022/09/14 00:48:03;;;;;;;5.20;2.20;;;;;;;19.08;82.45;95230.34;5010719;28;20121;-60
2022/09/14 00:50:28;;;;;;;5.95;2.60;;;;;;;19.02;83.98;95225.84;5002725;28;20522;-60
2022/09/14 00:52:55;;;;;;;4.53;2.38;;;;;;;18.96;83.91;95223.97;5011893;28;20037;-60
2022/09/14 00:55:22;;;;;;;6.72;3.50;;;;;;;18.96;84.52;95229.31;5005835;28;20033;-58
2022/09/14 00:57:51;;;;;;;7.35;2.53;;;;;;;19.00;83.90;95219.88;4998140;28;20069;-59
2022/09/14 01:00:22;;;;;;;4.95;2.63;;;;;;;19.08;83.57;95230.34;5003321;28;20054;-59
2022/09/14 01:02:48;;;;;;;3.65;2.60;;;;;;;19.04;83.30;95219.28;5002825;28;20022;-59
2022/09/14 01:05:15;;;;;;;6.90;2.70;;;;;;;18.99;84.68;95218.25;5008169;28;20059;-59
2022/09/14 01:08:11;;;;;;;5.60;2.80;;;;;;;18.95;85.38;95222.34;5005496;28;20025;-59
2022/09/14 01:11:03;;;;;;;5.18;2.45;;;;;;;18.90;85.92;95221.09;5000738;28;20073;-59
2022/09/14 01:13:40;;;;;;;5.35;2.67;;;;;;;18.95;85.20;95219.66;4988760;28;20058;-59
2022/09/14 01:16:33;;;;;;;4.28;2.75;;;;;;;18.95;86.48;95211.66;4998456;28;20038;-59
2022/09/14 01:19:05;;;;;;;8.98;2.78;;;;;;;18.92;85.94;95220.88;5002774;28;20085;-59
2022/09/14 01:21:34;;;;;;;3.60;2.40;;;;;;;18.90;86.39;95214.94;4999668;28;20022;-59
2022/09/14 01:24:10;;;;;;;6.97;3.25;;;;;;;18.85;86.77;95217.41;5002813;28;20025;-59
2022/09/14 01:26:54;;;;;;;8.60;2.80;;;;;;;18.81;87.22;95218.84;5008230;28;20448;-59
2022/09/14 01:29:44;;;;;;;5.20;2.50;;;;;;;18.77;87.94;95221.09;4988349;28;20440;-60
2022/09/14 01:32:20;;;;;;;7.78;2.50;;;;;;;18.77;87.14;95231.75;5007897;28;20018;-59
2022/09/14 01:34:49;;;;;;;;;;;;;;;18.75;87.32;95236.47;5004422;28;20398;-59
2022/09/14 01:37:26;;;;;;;3.58;2.55;;;;;;;18.73;86.69;95233.19;5003077;28;19921;-59
2022/09/14 01:39:59;;;;;;;4.65;2.25;;;;;;;18.65;87.22;95247.56;5006769;28;20065;-60
2022/09/14 01:42:27;;;;;;;7.75;3.00;;;;;;;18.63;87.41;95246.09;5000133;28;20029;-59
2022/09/14 01:44:58;;;;;;;6.18;2.67;;;;;;;18.59;87.46;95251.03;5009412;28;20064;-59
2022/09/14 01:47:31;;;;;;;8.00;2.67;;;;;;;18.54;88.16;95243.63;5008841;28;20022;-60
2022/09/14 01:50:14;;;;;;;9.05;2.47;;;;;;;18.52;88.19;95248.34;5006217;28;20029;-59
2022/09/14 01:53:04;;;;;;;9.70;2.88;;;;;;;18.49;89.36;95251.44;5002951;28;20269;-60
2022/09/14 01:55:40;;;;;;;8.20;2.75;;;;;;;18.46;88.70;95246.50;4998339;28;20050;-59
2022/09/14 01:58:26;;;;;;;4.45;2.80;;;;;;;18.46;88.79;95249.97;5008033;28;20456;-60
2022/09/14 02:00:54;;;;;;;6.72;2.88;;;;;;;18.46;88.25;95238.50;5006814;28;20021;-60
2022/09/14 02:03:28;;;;;;;7.00;2.83;;;;;;;18.43;88.81;95238.88;5001760;28;20030;-59
2022/09/14 02:06:18;;;;;;;3.80;2.58;;;;;;;18.39;89.39;95235.00;4995255;28;20038;-60
2022/09/14 02:08:43;;;;;;;7.30;2.25;;;;;;;18.35;89.91;95228.44;4998313;28;20721;-61
2022/09/14 02:11:09;;;;;;;3.72;2.35;;;;;;;18.37;89.24;95247.69;5001742;28;20114;-60
2022/09/14 02:13:34;;;;;;;10.55;2.83;;;;;;;18.50;88.14;95245.06;5003886;28;20109;-59
2022/09/14 02:16:00;;;;;;;6.18;2.72;;;;;;;18.41;88.75;95233.78;5003827;28;20052;-60
2022/09/14 02:18:25;;;;;;;6.53;2.50;;;;;;;18.35;89.47;95242.59;5007439;28;20549;-59
2022/09/14 02:21:01;;;;;;;5.55;2.80;;;;;;;18.26;89.97;95233.97;5006499;28;20035;-60
2022/09/14 02:23:27;;;;;;;3.85;2.40;;;;;;;18.27;89.38;95227.59;4996861;28;20513;-59
2022/09/14 02:25:53;;;;;;;3.13;2.45;;;;;;;18.27;89.57;95229.44;4999062;28;20048;-60
2022/09/14 02:28:19;;;;;;;3.45;2.65;;;;;;;18.24;89.80;95228.03;5003541;28;20018;-59
2022/09/14 02:30:48;;;;;;;5.18;2.38;;;;;;;18.22;90.53;95221.25;5000110;28;20037;-60
2022/09/14 02:33:34;;;;;;;5.00;2.75;;;;;;;18.24;90.24;95216.53;5006354;28;20072;-59
2022/09/14 02:36:29;;;;;;;2.63;2.40;;;;;;;18.27;90.01;95222.28;5006373;28;20116;-60
2022/09/14 02:38:57;;;;;;;7.43;2.97;;;;;;;18.25;90.09;95207.50;4985935;28;20056;-60
2022/09/14 02:42:07;;;;;;;8.57;2.75;;;;;;;18.24;89.56;95206.69;5004552;28;20486;-60
2022/09/14 02:44:42;;;;;;;4.90;2.55;;;;;;;18.23;90.06;95213.03;4965124;28;20054;-59
2022/09/14 02:47:28;;;;;;;5.63;2.28;;;;;;;18.26;91.19;95220.63;5007546;28;20029;-60
2022/09/14 02:50:12;;;;;;;5.25;2.40;;;;;;;18.26;91.50;95220.63;5008342;28;20025;-60
2022/09/14 02:53:09;;;;;;;2.40;2.20;;;;;;;18.22;92.87;95207.91;5006148;28;20029;-59
2022/09/14 02:55:39;;;;;;;7.97;2.58;;;;;;;18.18;93.04;95191.50;5000393;28;20030;-60
2022/09/14 02:58:06;;;;;;;6.10;2.80;;;;;;;18.18;92.79;95195.00;5002871;28;20034;-59
2022/09/14 03:00:35;;;;;;;6.25;4.72;;;;;;;18.19;94.74;95190.47;5003540;28;20033;-60
2022/09/14 03:03:02;;;;;;;4.57;2.55;;;;;;;18.23;92.88;95182.91;5004051;28;20019;-59
2022/09/14 03:05:27;;;;;;;7.97;2.60;;;;;;;18.22;92.82;95176.75;5000430;28;20033;-60
2022/09/14 03:07:53;;;;;;;6.50;2.22;;;;;;;18.21;92.82;95177.78;5001302;28;20460;-60
2022/09/14 03:10:19;;;;;;;5.97;2.30;;;;;;;18.18;93.51;95171.03;5006532;28;20058;-60
2022/09/14 03:12:44;;;;;;;7.75;2.70;;;;;;;18.17;94.05;95177.38;5003897;28;20026;-60
2022/09/14 03:15:10;;;;;;;7.03;2.50;;;;;;;18.18;93.54;95178.19;4997773;28;20101;-59
2022/09/14 03:17:35;;;;;;;6.57;2.80;;;;;;;18.15;94.07;95182.09;5005434;28;20019;-60
2022/09/14 03:20:01;;;;;;;5.05;2.67;;;;;;;18.16;94.05;95177.56;5001471;28;20083;-60
2022/09/14 03:22:26;;;;;;;5.18;2.75;;;;;;;18.15;93.71;95171.44;4992950;28;20045;-59
2022/09/14 03:24:52;;;;;;;9.57;2.88;;;;;;;18.15;95.43;95170.59;5004032;28;20408;-60
2022/09/14 03:27:17;;;;;;;4.07;2.40;;;;;;;18.10;96.33;95170.41;5003747;28;20031;-60
2022/09/14 03:29:42;;;;;;;6.22;2.55;;;;;;;18.06;96.08;95156.66;5002011;28;20170;-60
2022/09/14 03:32:09;;;;;;;3.20;2.53;;;;;;;18.02;96.25;95145.59;5004983;28;20026;-59
2022/09/14 03:34:35;;;;;;;19.45;3.28;;;;;;;18.06;95.59;95146.00;4989815;28;20030;-60
2022/09/14 03:37:01;;;;;;;8.35;2.53;;;;;;;18.10;95.23;95141.91;4984481;28;20036;-59
2022/09/14 03:39:27;;;;;;;4.55;2.47;;;;;;;18.14;94.88;95139.66;5001940;28;20113;-60
2022/09/14 03:41:52;;;;;;;4.45;2.50;;;;;;;18.10;96.24;95131.25;5002064;28;20026;-59
2022/09/14 03:44:17;;;;;;;7.53;2.40;;;;;;;18.10;96.75;95128.59;5000400;28;20041;-59
2022/09/14 03:46:43;;;;;;;6.35;2.67;;;;;;;18.09;96.66;95134.94;5002362;28;20034;-60
2022/09/14 03:49:08;;;;;;;4.82;2.90;;;;;;;18.08;96.91;95135.16;5000745;28;20030;-59
2022/09/14 03:51:34;;;;;;;5.18;2.53;;;;;;;18.05;97.83;95139.03;5000817;28;20026;-60
2022/09/14 03:53:59;;;;;;;4.93;2.50;;;;;;;18.02;98.25;95140.28;4999937;28;20029;-60
2022/09/14 03:56:25;;;;;;;3.28;2.78;;;;;;;17.98;98.56;95146.97;4997089;28;20053;-59
2022/09/14 03:58:50;;;;;;;5.97;2.97;;;;;;;17.94;98.62;95151.06;5005235;28;20653;-60
2022/09/14 04:01:19;;;;;;;4.80;2.30;;;;;;;17.95;98.51;95175.88;5007057;28;20030;-61
2022/09/14 04:03:45;;;;;;;3.85;2.38;;;;;;;17.96;99.81;95183.63;5008014;28;20032;-59
2022/09/14 04:06:11;;;;;;;4.95;2.45;;;;;;;17.97;99.57;95200.44;5006577;28;20100;-59
2022/09/14 04:08:39;;;;;;;3.70;2.28;;;;;;;17.99;99.57;95204.53;5009066;28;20049;-58
2022/09/14 04:11:13;;;;;;;5.45;2.47;;;;;;;17.94;97.03;95196.34;5005497;28;20049;-60
2022/09/14 04:13:40;;;;;;;3.92;2.22;;;;;;;17.92;95.92;95198.38;5004950;28;20064;-59
2022/09/14 04:16:05;;;;;;;4.15;2.17;;;;;;;17.91;95.68;95199.41;5009662;28;20034;-59
2022/09/14 04:18:31;;;;;;;3.35;2.17;;;;;;;17.90;95.34;95195.94;5011463;28;20084;-59
2022/09/14 04:21:03;;;;;;;6.95;2.78;;;;;;;17.90;95.56;95171.97;5000820;28;20030;-59
2022/09/14 04:23:28;;;;;;;5.78;2.63;;;;;;;17.94;95.00;95174.22;5002474;28;20547;-59
2022/09/14 04:25:54;;;;;;;3.83;2.53;;;;;;;17.90;94.88;95171.97;5003635;28;20026;-60
2022/09/14 04:28:21;;;;;;;10.55;3.03;;;;;;;17.91;95.41;95170.09;4990605;28;20022;-59
2022/09/14 04:30:58;;;;;;;6.38;2.47;;;;;;;17.90;95.14;95163.97;5003774;28;20026;-60
2022/09/14 04:33:24;;;;;;;4.15;2.30;;;;;;;17.90;95.20;95163.16;5002993;28;20040;-59
2022/09/14 04:36:05;;;;;;;4.63;2.55;;;;;;;17.96;94.41;95167.66;5006925;28;20026;-59
2022/09/14 04:38:31;;;;;;;4.10;2.60;;;;;;;17.99;93.99;95175.25;5001681;28;20100;-59
2022/09/14 04:40:57;;;;;;;4.03;2.53;;;;;;;17.99;94.62;95172.56;5004989;28;20018;-59
2022/09/14 04:43:24;;;;;;;5.88;2.42;;;;;;;17.96;95.75;95167.66;5001216;28;20033;-59
2022/09/14 04:45:51;;;;;;;4.03;2.80;;;;;;;17.92;95.70;95155.78;5006669;28;20366;-60
2022/09/14 04:48:17;;;;;;;5.05;2.90;;;;;;;18.19;93.97;95169.16;5006230;28;20041;-59
2022/09/14 04:50:42;;;;;;;5.45;2.50;;;;;;;18.05;94.31;95163.00;5002500;28;20375;-60
2022/09/14 04:53:09;;;;;;;7.97;2.70;;;;;;;17.88;96.21;95170.53;5003291;28;20076;-60
2022/09/14 04:55:34;;;;;;;5.07;2.75;;;;;;;17.86;97.27;95178.69;4997815;28;20394;-60
2022/09/14 04:58:00;;;;;;;4.80;2.58;;;;;;;17.76;98.34;95188.91;5003310;28;20034;-59
2022/09/14 05:00:25;;;;;;;3.65;2.95;;;;;;;17.70;98.08;95179.88;5004177;28;20397;-59
2022/09/14 05:02:51;;;;;;;3.85;2.55;;;;;;;17.67;99.52;95185.59;5004126;28;20029;-59
2022/09/14 05:05:16;;;;;;;3.92;2.50;;;;;;;17.70;98.22;95187.84;5006748;28;20030;-60
2022/09/14 05:07:41;;;;;;;3.83;2.72;;;;;;;17.70;98.28;95198.50;5005413;28;20025;-59
2022/09/14 05:10:07;;;;;;;7.30;2.42;;;;;;;17.72;98.70;95187.66;5005172;28;20046;-60
2022/09/14 05:12:33;;;;;;;7.82;2.78;;;;;;;17.71;100.00;95204.66;5002276;28;20485;-60
2022/09/14 05:14:58;;;;;;;7.95;2.92;;;;;;;17.64;100.00;95217.94;5003662;28;20185;-60
2022/09/14 05:17:24;;;;;;;5.72;3.10;;;;;;;17.61;100.00;95231.66;5006906;28;20883;-59
2022/09/14 05:19:49;;;;;;;10.10;3.03;;;;;;;17.63;100.00;95231.44;4998045;28;20025;-59
2022/09/14 05:22:15;;;;;;;9.45;3.22;;;;;;;17.55;100.00;95243.91;5001746;28;20026;-60
2022/09/14 05:24:40;;;;;;;9.43;3.28;;;;;;;17.51;100.00;95239.16;4996171;28;20552;-60
2022/09/14 05:27:06;;;;;;;6.43;3.10;;;;;;;17.49;100.00;95259.81;5001248;28;20041;-59
2022/09/14 05:29:31;;;;;;;11.90;3.10;;;;;;;17.50;100.00;95264.13;5003139;28;20030;-59
2022/09/14 05:31:57;;;;;;;8.23;3.00;;;;;;;17.52;100.00;95254.94;5004984;28;20577;-60
2022/09/14 05:34:22;;;;;;;6.40;3.22;;;;;;;17.52;100.00;95254.09;5015586;28;20087;-59
2022/09/14 05:36:47;;;;;;;11.43;3.60;;;;;;;17.52;100.00;95264.75;5005765;28;20029;-60
2022/09/14 05:39:13;;;;;;;4.80;2.83;;;;;;;17.54;100.00;95254.72;4992048;28;20029;-60
2022/09/14 05:41:38;;;;;;;6.85;3.30;;;;;;;17.56;100.00;95273.97;5001732;28;20026;-59
2022/09/14 05:44:04;;;;;;;6.43;3.47;;;;;;;17.49;100.00;95273.13;5004891;28;20112;-60
2022/09/14 05:46:29;;;;;;;9.50;3.25;;;;;;;17.45;100.00;95281.50;5007305;28;20046;-60
2022/09/14 05:48:55;;;;;;;8.75;3.67;;;;;;;17.44;100.00;95289.66;5001545;28;20029;-60
2022/09/14 05:51:23;;;;;;;10.95;3.47;;;;;;;17.40;100.00;95286.59;4982275;28;20037;-60
2022/09/14 05:53:50;;;;;;;10.07;3.15;;;;;;;17.31;100.00;95285.91;4997777;28;20347;-60
2022/09/14 05:56:16;;;;;;;8.60;3.53;;;;;;;17.32;100.00;95289.38;4996620;28;20026;-59
2022/09/14 05:58:42;;;;;;;7.65;3.13;;;;;;;17.40;100.00;95307.03;5000660;28;20049;-60
2022/09/14 06:01:14;;;;;;;4.90;3.15;;;;;;;17.43;100.00;95317.28;4999130;28;20022;-60
2022/09/14 06:03:40;;;;;;;6.15;3.45;;;;;;;17.43;100.00;95311.97;5007281;28;20029;-60
2022/09/14 06:06:08;;;;;;;10.68;3.83;;;;;;;17.44;100.00;95314.44;5008625;28;20544;-60
2022/09/14 06:08:33;;;;;;;10.65;3.88;;;;;;;17.42;100.00;95313.00;5004275;28;20046;-60
2022/09/14 06:11:07;;;;;;;7.78;3.13;;;;;;;17.35;100.00;95312.94;5011368;28;20508;-60
2022/09/14 06:13:33;;;;;;;11.60;3.55;;;;;;;17.35;100.00;95320.91;5007096;28;20148;-60
2022/09/14 06:16:07;;;;;;;8.57;3.80;;;;;;;17.61;100.00;95335.44;5010791;28;20545;-60
2022/09/14 06:18:34;;;;;;;6.47;3.20;;;;;;;17.44;100.00;95330.41;5005983;28;20068;-60
2022/09/14 06:21:00;;;;;;;11.82;4.30;;;;;;;17.38;100.00;95351.66;5003034;28;20030;-60
2022/09/14 06:23:30;;;;;;;8.55;4.75;;;;;;;17.32;100.00;95353.22;4996735;28;20100;-59
2022/09/14 06:25:57;;;;;;;10.73;3.75;;;;;;;17.30;100.00;95357.94;5002981;28;20497;-60
2022/09/14 06:28:25;;;;;;;8.48;3.45;;;;;;;17.28;100.00;95368.78;5000305;28;20073;-60
2022/09/14 06:30:51;;;;;;;7.20;2.97;;;;;;;17.67;100.00;95395.88;5006619;28;20054;-59
2022/09/14 06:33:17;;;;;;;5.82;3.03;;;;;;;17.51;100.00;95393.50;5002171;28;20062;-60
2022/09/14 06:35:45;;;;;;;5.93;2.92;;;;;;;17.30;100.00;95392.50;4997787;28;20438;-60
2022/09/14 06:38:12;;;;;;;9.70;3.17;;;;;;;17.20;100.00;95392.03;4998345;28;20034;-59
2022/09/14 06:40:37;;;;;;;11.70;3.90;;;;;;;17.11;100.00;95394.00;4998440;28;20026;-65
2022/09/14 06:43:02;;;;;;;10.25;3.55;;;;;;;17.14;100.00;95398.91;4999936;28;20449;-66
2022/09/14 06:45:29;;;;;;;9.82;3.50;;;;;;;17.13;100.00;95403.44;4997023;28;20109;-67
2022/09/14 06:47:56;;;;;;;7.63;3.35;;;;;;;17.13;100.00;95411.41;4999535;28;20045;-66
2022/09/14 06:50:21;;;;;;;12.52;4.03;;;;;;;17.15;100.00;95411.22;5006543;28;20025;-65
2022/09/14 06:52:47;;;;;;;19.33;4.28;;;;;;;17.11;100.00;95416.06;4995698;28;20033;-60
2022/09/14 06:55:12;;;;;;;7.93;3.20;;;;;;;17.11;100.00;95428.56;4999934;28;20034;-59
2022/09/14 06:57:37;;;;;;;12.10;4.18;;;;;;;17.10;100.00;95432.22;5001907;28;20042;-59
2022/09/14 07:00:04;;;;;;;8.50;3.83;;;;;;;17.15;100.00;95425.34;5005788;28;20040;-60
2022/09/14 07:02:29;;;;;;;9.55;3.33;;;;;;;17.16;100.00;95423.50;5005993;28;20053;-60
2022/09/14 07:04:55;;;;;;;9.82;2.92;;;;;;;17.12;100.00;95411.59;5004433;28;20456;-60
2022/09/14 07:07:21;;;;;;;9.45;3.10;;;;;;;17.08;100.00;95421.78;4999021;28;20029;-59
2022/09/14 07:09:46;;;;;;;6.60;2.85;;;;;;;17.03;100.00;95410.88;5006245;28;20038;-60
2022/09/14 07:12:11;;;;;;;9.55;2.78;;;;;;;17.07;100.00;95425.44;5002868;28;20054;-66
2022/09/14 07:14:37;;;;;;;9.45;3.53;;;;;;;17.07;100.00;95424.63;5000939;28;20022;-66
2022/09/14 07:17:03;;;;;;;15.15;3.45;;;;;;;17.06;100.00;95429.13;5000454;28;20119;-65
2022/09/14 07:19:29;;;;;;;16.38;3.53;;;;;;;17.07;100.00;95425.44;5000453;28;20041;-65
2022/09/14 07:21:54;;;;;;;11.45;3.40;;;;;;;17.09;100.00;95412.78;4995281;28;20026;-65
2022/09/14 07:24:20;;;;;;;14.15;3.88;;;;;;;17.10;100.00;95392.34;4995549;28;20041;-66
2022/09/14 07:26:46;;;;;;;11.27;3.35;;;;;;;17.17;100.00;95366.63;5000341;28;20500;-65
2022/09/14 07:29:15;;;;;;;7.13;3.10;;;;;;;17.21;100.00;95341.28;5003546;28;20041;-65
2022/09/14 07:31:46;;;;;;;15.20;3.60;;;;;;;17.26;100.00;95320.25;5004166;28;20014;-66
2022/09/14 07:34:12;;;;;;;11.35;3.75;;;;;;;17.33;100.00;95297.19;5003622;28;20022;-66
2022/09/14 07:36:39;;;;;;;9.82;3.33;;;;;;;17.43;100.00;95288.03;4997791;28;20095;-66
2022/09/14 07:39:07;;;;;;;12.07;3.28;;;;;;;17.44;100.00;95287.84;5007127;28;20115;-67
2022/09/14 07:41:34;;;;;;;10.80;3.30;;;;;;;17.48;100.00;95282.97;5001745;28;20022;-67
2022/09/14 07:44:01;;;;;;;6.25;3.25;;;;;;;17.57;100.00;95275.63;5010778;28;20034;-69
2022/09/14 07:46:29;;;;;;;9.18;3.63;;;;;;;17.61;100.00;95283.03;5009370;28;20025;-68
2022/09/14 07:49:00;;;;;;;10.20;3.53;;;;;;;17.60;100.00;95294.69;5005638;28;20030;-69
2022/09/14 07:51:27;;;;;;;12.23;5.63;;;;;;;17.56;100.00;95280.13;4998148;28;20485;-68
2022/09/14 07:53:53;;;;;;;15.82;5.35;;;;;;;17.62;100.00;95289.19;4997796;28;20042;-69
2022/09/14 07:56:20;;;;;;;11.25;4.90;;;;;;;17.75;100.00;95307.06;4996836;28;20526;-68
2022/09/14 07:58:46;;;;;;;11.82;3.60;;;;;;;17.82;100.00;95318.56;5001814;28;20516;-68
2022/09/14 08:01:14;;;;;;;8.15;3.20;;;;;;;17.88;100.00;95327.63;5005279;28;20026;-68
2022/09/14 08:03:42;;;;;;;9.85;3.17;;;;;;;17.88;100.00;95319.63;5004839;28;20057;-68
2022/09/14 08:06:17;;;;;;;9.90;3.28;;;;;;;17.85;100.00;95326.16;4995574;28;20041;-69
2022/09/14 08:08:45;;;;;;;8.20;3.45;;;;;;;17.84;100.00;95339.69;4994057;28;20042;-68
2022/09/14 08:11:18;;;;;;;14.90;3.63;;;;;;;17.77;100.00;95355.59;5002092;28;20180;-68
2022/09/14 08:13:49;;;;;;;4.50;2.60;;;;;;;17.71;100.00;95359.06;4999052;28;20042;-68
2022/09/14 08:16:14;;;;;;;13.13;3.25;;;;;;;17.66;100.00;95349.00;4993645;28;20040;-68
2022/09/14 08:18:40;;;;;;;9.07;3.40;;;;;;;17.66;100.00;95349.00;4994692;28;20029;-68
2022/09/14 08:21:10;;;;;;;7.32;2.90;;;;;;;17.66;100.00;95354.31;4996515;28;20437;-68
2022/09/14 08:23:36;;;;;;;15.38;3.20;;;;;;;17.71;100.00;95353.75;5000632;28;20481;-68
2022/09/14 08:26:08;;;;;;;8.75;2.88;;;;;;;17.70;100.00;95349.44;5000653;28;20068;-68
2022/09/14 08:28:35;;;;;;;11.45;2.95;;;;;;;17.64;100.00;95348.38;5001122;28;20018;-68
2022/09/14 08:31:06;;;;;;;11.45;3.30;;;;;;;17.52;100.00;95333.94;5001671;28;20041;-68
2022/09/14 08:33:33;;;;;;;9.18;2.85;;;;;;;17.53;100.00;95327.59;5000720;28;20058;-68
2022/09/14 08:35:59;;;;;;;9.57;2.90;;;;;;;17.62;100.00;95310.47;5000294;28;20029;-68
2022/09/14 08:38:26;;;;;;;5.82;2.63;;;;;;;17.71;100.00;95297.84;4992450;28;20033;-68
2022/09/14 08:40:51;;;;;;;8.45;2.85;;;;;;;17.74;100.00;95300.09;4993629;28;20557;-69
2022/09/14 08:43:20;;;;;;;13.40;3.00;;;;;;;17.76;100.00;95292.72;4989077;28;20124;-69
2022/09/14 08:45:47;;;;;;;9.50;3.30;;;;;;;17.79;100.00;95294.16;4992860;28;20069;-69
2022/09/14 08:48:24;;;;;;;7.72;3.30;;;;;;;17.83;100.00;95282.94;5001247;28;20106;-69
2022/09/14 08:50:53;;;;;;;8.85;2.85;;;;;;;17.88;100.00;95288.47;5000078;28;20576;-69
2022/09/14 08:53:20;;;;;;;8.02;3.35;;;;;;;17.99;100.00;95287.09;4994335;28;20026;-68
2022/09/14 08:56:16;;;;;;;10.20;3.08;;;;;;;18.13;100.00;95295.19;4991156;28;20068;-69
2022/09/14 08:59:08;;;;;;;6.07;3.05;;;;;;;18.27;100.00;95299.53;4995697;28;20077;-69
2022/09/14 09:02:01;;;;;;;14.05;3.50;;;;;;;18.46;100.00;95297.16;4993712;28;20272;-69
2022/09/14 09:04:45;;;;;;;10.07;3.08;;;;;;;18.68;100.00;95299.63;4999058;28;20026;-69
2022/09/14 09:07:16;;;;;;;8.75;2.97;;;;;;;18.85;100.00;95287.56;5000031;28;20505;-69
2022/09/14 09:09:45;;;;;;;6.38;3.05;;;;;;;19.09;100.00;95290.66;5001496;28;20038;-69
2022/09/14 09:12:20;;;;;;;9.40;3.15;;;;;;;19.28;100.00;95291.72;4997120;28;20030;-69
2022/09/14 09:14:54;;;;;;;10.00;2.65;;;;;;;19.52;100.00;95293.91;5006649;28;20026;-69
2022/09/14 09:17:38;;;;;;;8.63;2.80;;;;;;;19.62;100.00;95286.31;5008909;28;20036;-70
2022/09/14 09:20:28;;;;;;;5.65;2.65;;;;;;;19.73;100.00;95276.84;5003060;28;20232;-69
2022/09/14 09:23:27;;;;;;;8.57;2.97;;;;;;;19.78;100.00;95277.03;5002070;28;20481;-69
2022/09/14 09:26:09;;;;;;;7.38;2.85;;;;;;;19.87;100.00;95270.41;4948693;28;20054;-69
2022/09/14 09:28:44;;;;;;;8.88;2.75;;;;;;;19.88;100.00;95261.38;4998144;28;20057;-69
2022/09/14 09:31:12;;;;;;;6.75;2.40;;;;;;;19.88;100.00;95257.88;4997121;28;20026;-69
2022/09/14 09:33:37;;;;;;;7.07;2.45;;;;;;;19.94;100.00;95254.41;5008441;28;20485;-69
2022/09/14 09:36:07;;;;;;;7.25;2.85;;;;;;;19.93;100.00;95255.44;5004963;28;20038;-69
2022/09/14 09:38:33;;;;;;;7.45;2.65;;;;;;;20.02;100.00;95251.50;5008380;28;20033;-69
2022/09/14 09:41:25;;;;;;;11.45;2.80;;;;;;;20.57;100.00;95247.50;5007972;28;20141;-69
2022/09/14 09:44:08;;;;;;;5.68;2.40;;;;;;;20.92;100.00;95234.75;5000850;28;20021;-69
2022/09/14 09:46:36;;;;;;;7.28;2.70;;;;;;;21.04;98.89;95223.09;5008068;28;20046;-70
2022/09/14 09:49:13;;;;;;;11.10;2.85;;;;;;;21.03;97.79;95217.97;5002764;28;20041;-69
2022/09/14 09:51:39;;;;;;;9.27;2.38;;;;;;;21.32;98.40;95218.31;5002089;28;20448;-69
2022/09/14 09:54:08;;;;;;;5.93;1.98;;;;;;;21.38;96.29;95219.28;5001317;28;20042;-69
2022/09/14 09:56:58;;;;;;;4.70;2.22;;;;;;;21.52;nan;95202.03;5003504;28;20042;-69
2022/09/14 09:59:29;;;;;;;9.45;2.75;;;;;;;21.32;89.73;95202.25;4999373;28;20066;-70
2022/09/14 10:02:12;;;;;;;6.72;2.70;;;;;;;21.36;90.78;95197.28;5000108;28;20017;-69
2022/09/14 10:04:55;;;;;;;6.38;2.40;;;;;;;21.42;84.66;95191.00;5005616;28;20400;-69
2022/09/14 10:07:22;;;;;;;3.88;1.85;;;;;;;21.70;86.02;95184.38;5003081;28;20026;-69
2022/09/14 10:10:05;;;;;;;6.13;2.65;;;;;;;21.81;77.73;95183.59;5007119;28;20520;-70
2022/09/14 10:12:31;;;;;;;6.90;2.42;;;;;;;21.50;82.92;95176.53;4997174;28;20405;-70
2022/09/14 10:15:09;;;;;;;3.53;2.60;;;;;;;21.37;84.17;95167.59;5010509;28;20022;-68
2022/09/14 10:17:36;;;;;;;3.10;2.50;;;;;;;21.38;83.66;95163.06;4993468;28;20034;-69
2022/09/14 10:20:02;;;;;;;7.35;2.53;;;;;;;21.38;82.24;95166.56;4993548;28;20045;-69
2022/09/14 10:22:30;;;;;;;6.13;2.58;;;;;;;21.59;78.24;95167.97;5003938;28;20157;-70
2022/09/14 10:24:57;;;;;;;3.80;2.40;;;;;;;21.56;78.23;95175.66;4994820;28;20030;-69
2022/09/14 10:27:47;;;;;;;7.07;2.10;;;;;;;21.47;80.99;95173.25;4991310;28;20058;-70
2022/09/14 10:30:27;;;;;;;7.85;2.58;;;;;;;21.46;79.77;95165.47;4991593;28;20492;-70
2022/09/14 10:33:01;;;;;;;4.93;3.00;;;;;;;21.24;81.91;95167.75;4990779;28;20252;-71
2022/09/14 10:35:53;;;;;;;3.03;2.05;;;;;;;21.23;81.90;95171.47;4991073;28;20449;-70
2022/09/14 10:38:51;;;;;;;5.05;2.40;;;;;;;21.29;83.36;95163.38;4997858;28;20393;-69
2022/09/14 10:41:38;;;;;;;4.78;2.20;;;;;;;21.82;80.47;95149.59;5007060;28;20116;-70
2022/09/14 10:44:18;;;;;;;4.57;2.10;;;;;;;22.28;74.56;95150.81;4997312;28;20067;-70
2022/09/14 10:47:04;;;;;;;5.30;2.40;;;;;;;22.92;66.73;95149.41;5004450;28;20041;-71
2022/09/14 10:50:02;;;;;;;3.40;1.98;;;;;;;22.77;64.44;95135.63;4999489;28;20088;-70
2022/09/14 10:52:30;;;;;;;4.38;1.90;;;;;;;22.67;63.54;95136.22;4989228;28;20034;-70
2022/09/14 10:55:02;;;;;;;5.47;2.33;;;;;;;22.72;64.75;95139.81;4994012;28;20069;-70
2022/09/14 10:57:56;;;;;;;3.70;2.28;;;;;;;22.73;66.44;95137.97;4990744;28;20026;-70
2022/09/14 11:00:21;;;;;;;3.10;2.10;;;;;;;22.64;63.31;95125.94;4976165;28;20472;-68
2022/09/14 11:03:22;;;;;;;4.18;2.17;;;;;;;22.59;64.25;95124.78;4991980;28;20106;-69
2022/09/14 11:06:25;;;;;;;3.25;2.20;;;;;;;22.57;65.47;95121.50;4992241;28;20481;-70
2022/09/14 11:09:03;;;;;;;5.97;2.22;;;;;;;22.53;68.08;95114.97;4990529;28;20058;-70
2022/09/14 11:11:51;;;;;;;7.32;2.25;;;;;;;22.54;66.66;95105.88;4991356;28;20452;-70
2022/09/14 11:14:35;;;;;;;4.10;2.10;;;;;;;22.73;65.77;95124.56;4990535;28;20030;-70
2022/09/14 11:17:03;;;;;;;7.38;2.13;;;;;;;23.02;63.47;95124.66;4990161;28;20129;-70
2022/09/14 11:19:40;;;;;;;5.15;2.22;;;;;;;23.10;63.15;95129.69;4993614;28;20478;-70
2022/09/14 11:22:47;;;;;;;5.60;2.38;;;;;;;23.20;63.83;95122.91;4993340;28;20037;-70
2022/09/14 11:25:16;;;;;;;3.10;2.22;;;;;;;22.86;66.97;95136.94;4979401;28;20296;-70
2022/09/14 11:27:59;;;;;;;5.47;2.40;;;;;;;22.85;65.29;95132.63;4991667;28;20026;-70
2022/09/14 11:30:45;;;;;;;4.57;2.47;;;;;;;22.96;63.44;95144.41;4989642;28;20482;-70
2022/09/14 11:33:34;;;;;;;4.10;2.33;;;;;;;23.14;61.97;95143.44;4991083;28;20030;-71
2022/09/14 11:36:15;;;;;;;4.57;2.22;;;;;;;23.24;60.41;95150.91;4991104;28;20046;-71
2022/09/14 11:38:46;;;;;;;2.65;2.13;;;;;;;23.61;58.73;95147.97;4988868;28;20061;-70
2022/09/14 11:41:12;;;;;;;3.05;2.13;;;;;;;23.56;57.32;95148.66;4991776;28;20034;-68
2022/09/14 11:43:43;;;;;;;2.17;1.70;;;;;;;23.71;56.88;95166.16;4990183;28;20022;-62
2022/09/14 11:46:20;;;;;;;4.28;2.15;;;;;;;23.84;55.68;95170.44;4990110;28;20033;-62
2022/09/14 11:49:18;;;;;;;2.88;2.08;;;;;;;23.99;56.85;95141.19;4991545;28;20022;-62